createdAt,value
2023-05-07T00:00:35.781Z,14.8
2023-05-07T00:01:35.884Z,14.2
2023-05-07T00:02:35.960Z,13.0
2023-05-07T00:03:35.918Z,14.0
2023-05-07T00:04:35.810Z,12.9
2023-05-07T00:05:35.839Z,12.9
2023-05-07T00:06:35.772Z,13.1
2023-05-07T00:07:35.754Z,11.2
2023-05-07T00:08:35.785Z,15.0
2023-05-07T00:09:35.757Z,14.1
2023-05-07T00:10:35.830Z,12.4
2023-05-07T00:11:37.046Z,9.8
2023-05-07T00:12:35.756Z,13.0
2023-05-07T00:13:35.784Z,10.9
2023-05-07T00:14:35.904Z,11.6
2023-05-07T00:15:35.850Z,9.9
2023-05-07T00:16:35.837Z,13.4
2023-05-07T00:17:35.815Z,11.3
2023-05-07T00:18:35.742Z,10.8
2023-05-07T00:19:35.751Z,10.7
2023-05-07T00:20:36.468Z,10.2
2023-05-07T00:21:35.780Z,11.8
2023-05-07T00:22:35.748Z,9.6
2023-05-07T00:23:35.918Z,10.2
2023-05-07T00:24:35.713Z,9.6
2023-05-07T00:25:35.808Z,9.6
2023-05-07T00:26:35.794Z,10.9
2023-05-07T00:27:35.698Z,10.0
2023-05-07T00:28:35.721Z,8.5
2023-05-07T00:29:35.988Z,8.7
2023-05-07T00:30:35.738Z,11.3
2023-05-07T00:31:35.929Z,9.3
2023-05-07T00:32:35.810Z,9.8
2023-05-07T00:33:35.752Z,8.8
2023-05-07T00:34:35.775Z,8.4
2023-05-07T00:35:36.102Z,9.8
2023-05-07T00:36:35.726Z,8.1
2023-05-07T00:37:35.807Z,9.0
2023-05-07T00:39:35.672Z,7.8
2023-05-07T00:40:35.775Z,7.1
2023-05-07T00:41:35.782Z,8.9
2023-05-07T00:42:35.701Z,9.2
2023-05-07T00:43:35.702Z,7.4
2023-05-07T00:44:35.702Z,9.3
2023-05-07T00:45:35.770Z,9.4
2023-05-07T00:46:35.977Z,8.2
2023-05-07T00:47:35.842Z,8.5
2023-05-07T00:48:35.720Z,8.3
2023-05-07T00:49:35.676Z,7.6
2023-05-07T00:50:35.734Z,9.2
2023-05-07T00:51:35.699Z,7.2
2023-05-07T00:52:35.754Z,7.1
2023-05-07T00:53:35.837Z,8.5
2023-05-07T00:54:35.689Z,7.1
2023-05-07T00:55:35.735Z,7.1
2023-05-07T00:56:35.694Z,7.2
2023-05-07T00:57:35.711Z,6.4
2023-05-07T00:58:35.667Z,7.5
2023-05-07T00:59:35.689Z,7.2
2023-05-07T01:00:35.739Z,6.7
2023-05-07T01:01:35.717Z,6.1
2023-05-07T01:02:35.843Z,7.0
2023-05-07T01:03:35.699Z,6.9
2023-05-07T01:04:35.718Z,6.5
2023-05-07T01:05:35.688Z,5.9
2023-05-07T01:06:35.781Z,7.0
2023-05-07T01:07:35.778Z,6.0
2023-05-07T01:08:36.181Z,6.6
2023-05-07T01:09:35.660Z,7.5
2023-05-07T01:10:35.681Z,6.3
2023-05-07T01:11:35.710Z,5.7
2023-05-07T01:12:35.678Z,6.5
2023-05-07T01:13:35.741Z,6.7
2023-05-07T01:14:35.688Z,6.8
2023-05-07T01:15:35.647Z,6.3
2023-05-07T01:16:35.777Z,7.1
2023-05-07T01:17:35.700Z,7.0
2023-05-07T01:18:35.650Z,6.1
2023-05-07T01:19:35.782Z,6.6
2023-05-07T01:20:35.831Z,5.8
2023-05-07T01:21:35.697Z,6.7
2023-05-07T01:22:35.657Z,5.6
2023-05-07T01:23:39.935Z,5.6
2023-05-07T01:24:35.624Z,5.9
2023-05-07T01:25:35.666Z,5.6
2023-05-07T01:26:35.792Z,6.5
2023-05-07T01:27:35.605Z,6.2
2023-05-07T01:28:35.607Z,5.4
2023-05-07T01:29:35.666Z,7.3
2023-05-07T01:30:35.638Z,4.5
2023-05-07T01:31:35.724Z,5.7
2023-05-07T01:32:35.683Z,5.1
2023-05-07T01:33:35.616Z,4.9
2023-05-07T01:34:35.617Z,5.6
2023-05-07T01:35:35.627Z,7.0
2023-05-07T01:36:35.585Z,5.4
2023-05-07T01:37:35.658Z,4.7
2023-05-07T01:38:35.727Z,4.6
2023-05-07T01:39:35.570Z,5.5
2023-05-07T01:40:35.646Z,5.5
2023-05-07T01:41:35.814Z,5.8
2023-05-07T01:42:35.616Z,4.6
2023-05-07T01:43:35.723Z,4.6
2023-05-07T01:44:35.602Z,4.9
2023-05-07T01:45:35.606Z,4.8
2023-05-07T01:46:35.667Z,4.6
2023-05-07T01:47:35.732Z,4.4
2023-05-07T01:48:35.672Z,4.4
2023-05-07T01:49:35.656Z,4.2
2023-05-07T01:50:35.625Z,4.8
2023-05-07T01:51:35.590Z,3.7
2023-05-07T01:52:46.281Z,4.4
2023-05-07T01:53:36.868Z,5.4
2023-05-07T01:54:35.563Z,3.7
2023-05-07T01:55:35.581Z,3.4
2023-05-07T01:56:35.617Z,4.8
2023-05-07T01:57:35.621Z,4.9
2023-05-07T01:58:35.582Z,3.3
2023-05-07T01:59:35.670Z,3.9
2023-05-07T02:00:35.563Z,6.0
2023-05-07T02:01:35.637Z,4.7
2023-05-07T02:02:35.712Z,5.1
2023-05-07T02:03:35.679Z,4.7
2023-05-07T02:04:35.788Z,4.4
2023-05-07T02:05:35.613Z,3.9
2023-05-07T02:06:35.559Z,4.4
2023-05-07T02:07:35.576Z,4.7
2023-05-07T02:08:35.665Z,3.8
2023-05-07T02:09:35.611Z,5.9
2023-05-07T02:10:35.543Z,3.2
2023-05-07T02:11:35.593Z,4.3
2023-05-07T02:12:35.548Z,5.3
2023-05-07T02:13:35.633Z,3.7
2023-05-07T02:14:35.734Z,5.5
2023-05-07T02:15:35.510Z,4.7
2023-05-07T02:16:35.559Z,3.9
2023-05-07T02:17:35.596Z,4.6
2023-05-07T02:18:35.532Z,4.0
2023-05-07T02:19:35.608Z,3.6
2023-05-07T02:20:35.633Z,3.7
2023-05-07T02:21:35.541Z,3.2
2023-05-07T02:22:35.501Z,4.7
2023-05-07T02:23:35.529Z,5.0
2023-05-07T02:24:37.676Z,4.5
2023-05-07T02:25:35.574Z,5.4
2023-05-07T02:26:35.838Z,3.3
2023-05-07T02:27:35.552Z,3.1
2023-05-07T02:28:35.512Z,3.7
2023-05-07T02:29:35.587Z,3.9
2023-05-07T02:30:35.575Z,4.8
2023-05-07T02:31:35.591Z,3.7
2023-05-07T02:32:35.562Z,3.4
2023-05-07T02:33:35.591Z,6.1
2023-05-07T02:34:35.473Z,3.8
2023-05-07T02:35:35.709Z,3.5
2023-05-07T02:36:35.505Z,3.8
2023-05-07T02:37:35.641Z,5.6
2023-05-07T02:38:35.641Z,3.7
2023-05-07T02:39:35.580Z,4.3
2023-05-07T02:40:35.482Z,4.1
2023-05-07T02:41:35.588Z,4.3
2023-05-07T02:42:35.512Z,3.9
2023-05-07T02:43:35.486Z,4.4
2023-05-07T02:44:35.609Z,4.2
2023-05-07T02:45:35.505Z,4.6
2023-05-07T02:46:35.633Z,4.1
2023-05-07T02:47:35.506Z,6.2
2023-05-07T02:48:35.526Z,4.4
2023-05-07T02:49:35.473Z,4.5
2023-05-07T02:50:35.564Z,5.5
2023-05-07T02:51:35.549Z,3.8
2023-05-07T02:52:35.465Z,4.9
2023-05-07T02:53:35.641Z,4.6
2023-05-07T02:54:35.464Z,4.0
2023-05-07T02:55:35.744Z,5.3
2023-05-07T02:56:35.550Z,4.2
2023-05-07T02:57:35.565Z,3.9
2023-05-07T02:58:35.462Z,5.3
2023-05-07T02:59:35.812Z,3.9
2023-05-07T03:00:35.452Z,4.6
2023-05-07T03:01:35.455Z,4.2
2023-05-07T03:02:35.726Z,4.8
2023-05-07T03:03:35.435Z,5.0
2023-05-07T03:04:35.639Z,6.3
2023-05-07T03:05:35.468Z,5.0
2023-05-07T03:06:35.452Z,4.9
2023-05-07T03:07:35.629Z,4.3
2023-05-07T03:08:35.939Z,4.9
2023-05-07T03:09:35.491Z,4.6
2023-05-07T03:10:35.626Z,4.4
2023-05-07T03:11:35.485Z,4.7
2023-05-07T03:12:35.488Z,4.4
2023-05-07T03:13:35.421Z,5.2
2023-05-07T03:14:36.590Z,4.1
2023-05-07T03:15:35.456Z,4.2
2023-05-07T03:16:35.491Z,3.8
2023-05-07T03:17:35.647Z,3.6
2023-05-07T03:18:35.449Z,6.4
2023-05-07T03:19:35.396Z,4.6
2023-05-07T03:20:35.616Z,3.3
2023-05-07T03:21:35.657Z,5.9
2023-05-07T03:22:35.441Z,4.6
2023-05-07T03:23:35.479Z,4.1
2023-05-07T03:24:35.420Z,5.8
2023-05-07T03:25:35.472Z,4.4
2023-05-07T03:26:35.504Z,4.9
2023-05-07T03:27:35.460Z,4.0
2023-05-07T03:28:35.438Z,4.3
2023-05-07T03:29:35.606Z,4.1
2023-05-07T03:30:35.436Z,4.8
2023-05-07T03:31:35.419Z,5.1
2023-05-07T03:32:35.769Z,3.5
2023-05-07T03:33:35.435Z,4.5
2023-05-07T03:34:35.376Z,4.1
2023-05-07T03:35:35.452Z,3.8
2023-05-07T03:36:35.384Z,5.0
2023-05-07T03:37:35.420Z,3.9
2023-05-07T03:38:35.476Z,4.1
2023-05-07T03:39:35.464Z,3.6
2023-05-07T03:40:35.404Z,5.4
2023-05-07T03:41:35.475Z,3.2
2023-05-07T03:42:35.414Z,4.2
2023-05-07T03:43:35.541Z,3.5
2023-05-07T03:44:35.629Z,4.2
2023-05-07T03:45:35.462Z,7.1
2023-05-07T03:46:35.427Z,4.3
2023-05-07T03:47:35.551Z,5.0
2023-05-07T03:48:35.519Z,4.4
2023-05-07T03:49:35.469Z,4.1
2023-05-07T03:50:35.354Z,4.6
2023-05-07T03:51:35.377Z,3.8
2023-05-07T03:52:35.384Z,3.4
2023-05-07T03:53:35.480Z,3.9
2023-05-07T03:54:35.363Z,4.0
2023-05-07T03:55:35.348Z,4.8
2023-05-07T03:56:35.414Z,4.3
2023-05-07T03:57:35.383Z,3.9
2023-05-07T03:58:35.411Z,4.2
2023-05-07T03:59:35.511Z,3.6
2023-05-07T04:00:35.386Z,3.1
2023-05-07T04:01:35.357Z,2.5
2023-05-07T04:02:35.508Z,4.7
2023-05-07T04:03:35.500Z,4.2
2023-05-07T04:04:35.418Z,4.1
2023-05-07T04:05:35.578Z,3.4
2023-05-07T04:06:35.358Z,4.9
2023-05-07T04:07:35.333Z,3.0
2023-05-07T04:08:35.371Z,4.1
2023-05-07T04:09:35.487Z,3.4
2023-05-07T04:10:35.350Z,4.5
2023-05-07T04:11:35.396Z,3.5
2023-05-07T04:12:35.368Z,3.2
2023-05-07T04:13:35.314Z,3.0
2023-05-07T04:14:35.487Z,3.9
2023-05-07T04:15:35.321Z,2.7
2023-05-07T04:16:35.625Z,4.3
2023-05-07T04:17:35.823Z,3.1
2023-05-07T04:18:35.390Z,2.6
2023-05-07T04:19:35.363Z,5.8
2023-05-07T04:20:35.929Z,2.8
2023-05-07T04:21:35.447Z,3.2
2023-05-07T04:22:35.553Z,2.7
2023-05-07T04:23:35.920Z,3.5
2023-05-07T04:24:35.456Z,4.0
2023-05-07T04:25:35.348Z,3.8
2023-05-07T04:26:35.498Z,4.0
2023-05-07T04:27:35.357Z,3.1
2023-05-07T04:28:35.317Z,3.2
2023-05-07T04:29:35.419Z,4.2
2023-05-07T04:30:35.358Z,3.1
2023-05-07T04:31:35.348Z,4.6
2023-05-07T04:32:35.340Z,4.5
2023-05-07T04:33:35.325Z,3.1
2023-05-07T04:34:35.308Z,4.1
2023-05-07T04:35:35.365Z,3.4
2023-05-07T04:36:35.363Z,3.9
2023-05-07T04:37:35.292Z,4.0
2023-05-07T04:38:35.525Z,3.0
2023-05-07T04:39:35.270Z,3.0
2023-05-07T04:40:35.284Z,3.8
2023-05-07T04:41:35.367Z,2.8
2023-05-07T04:42:35.287Z,3.0
2023-05-07T04:43:35.285Z,2.8
2023-05-07T04:44:35.297Z,2.6
2023-05-07T04:45:35.346Z,4.2
2023-05-07T04:46:35.378Z,3.6
2023-05-07T04:47:35.317Z,3.4
2023-05-07T04:48:35.261Z,3.0
2023-05-07T04:49:35.408Z,3.5
2023-05-07T04:50:35.328Z,2.6
2023-05-07T04:51:35.312Z,2.9
2023-05-07T04:52:35.247Z,2.7
2023-05-07T04:53:35.315Z,4.7
2023-05-07T04:54:35.281Z,3.3
2023-05-07T04:55:35.256Z,2.4
2023-05-07T04:56:35.304Z,2.4
2023-05-07T04:57:35.280Z,2.6
2023-05-07T04:58:35.238Z,3.0
2023-05-07T04:59:35.305Z,2.3
2023-05-07T05:00:35.363Z,3.9
2023-05-07T05:01:35.291Z,2.1
2023-05-07T05:02:35.285Z,2.9
2023-05-07T05:03:35.327Z,2.5
2023-05-07T05:04:35.237Z,2.4
2023-05-07T05:05:35.351Z,2.6
2023-05-07T05:06:35.244Z,2.7
2023-05-07T05:07:35.225Z,2.0
2023-05-07T05:08:35.303Z,2.0
2023-05-07T05:09:35.191Z,3.0
2023-05-07T05:10:35.265Z,4.0
2023-05-07T05:11:35.431Z,3.0
2023-05-07T05:12:35.233Z,2.5
2023-05-07T05:13:35.259Z,4.1
2023-05-07T05:14:35.290Z,3.0
2023-05-07T05:15:35.223Z,2.2
2023-05-07T05:17:35.314Z,2.2
2023-05-07T05:18:35.234Z,3.6
2023-05-07T05:19:35.240Z,2.5
2023-05-07T05:20:35.246Z,5.0
2023-05-07T05:21:35.374Z,3.3
2023-05-07T05:22:35.370Z,3.0
2023-05-07T05:23:35.330Z,2.6
2023-05-07T05:24:35.176Z,3.2
2023-05-07T05:25:35.236Z,3.4
2023-05-07T05:26:35.277Z,3.3
2023-05-07T05:27:35.224Z,4.2
2023-05-07T05:28:35.221Z,4.1
2023-05-07T05:29:35.209Z,3.1
2023-05-07T05:30:35.203Z,3.4
2023-05-07T05:31:35.291Z,3.6
2023-05-07T05:32:35.363Z,3.9
2023-05-07T05:33:35.266Z,4.8
2023-05-07T05:34:35.208Z,3.7
2023-05-07T05:35:35.244Z,6.6
2023-05-07T05:36:35.171Z,3.3
2023-05-07T05:38:35.320Z,2.8
2023-05-07T05:39:35.181Z,3.3
2023-05-07T05:40:35.158Z,3.2
2023-05-07T05:41:35.219Z,4.0
2023-05-07T05:42:35.206Z,4.5
2023-05-07T05:43:35.301Z,4.7
2023-05-07T05:44:35.344Z,4.6
2023-05-07T05:45:35.155Z,5.3
2023-05-07T05:46:37.158Z,3.7
2023-05-07T05:47:35.302Z,3.5
2023-05-07T05:48:35.178Z,3.9
2023-05-07T05:49:35.166Z,4.6
2023-05-07T05:50:35.198Z,3.5
2023-05-07T05:51:35.235Z,4.1
2023-05-07T05:52:35.166Z,3.3
2023-05-07T05:53:35.186Z,4.6
2023-05-07T05:54:35.177Z,3.6
2023-05-07T05:55:35.272Z,3.7
2023-05-07T05:56:35.197Z,3.9
2023-05-07T05:57:35.150Z,3.3
2023-05-07T05:58:35.189Z,4.1
2023-05-07T05:59:35.178Z,4.1
2023-05-07T06:00:35.181Z,4.2
2023-05-07T06:01:35.242Z,7.6
2023-05-07T06:02:35.279Z,2.9
2023-05-07T06:03:35.182Z,3.3
2023-05-07T06:04:35.213Z,4.1
2023-05-07T06:05:35.190Z,3.4
2023-05-07T06:06:35.322Z,4.7
2023-05-07T06:07:35.148Z,4.6
2023-05-07T06:08:35.162Z,4.5
2023-05-07T06:09:35.125Z,4.7
2023-05-07T06:10:35.215Z,4.2
2023-05-07T06:11:35.203Z,3.9
2023-05-07T06:12:35.149Z,3.7
2023-05-07T06:13:35.148Z,3.5
2023-05-07T06:14:35.158Z,4.0
2023-05-07T06:15:35.192Z,3.9
2023-05-07T06:16:35.172Z,3.8
2023-05-07T06:17:35.319Z,4.7
2023-05-07T06:18:35.192Z,5.4
2023-05-07T06:19:35.111Z,2.6
2023-05-07T06:20:35.224Z,2.8
2023-05-07T06:21:35.189Z,3.5
2023-05-07T06:22:35.120Z,4.0
2023-05-07T06:23:35.176Z,3.1
2023-05-07T06:24:35.095Z,2.9
2023-05-07T06:25:35.144Z,3.3
2023-05-07T06:26:35.320Z,4.5
2023-05-07T06:27:35.086Z,4.0
2023-05-07T06:28:35.326Z,3.4
2023-05-07T06:29:35.159Z,4.2
2023-05-07T06:30:35.169Z,3.4
2023-05-07T06:31:35.122Z,3.4
2023-05-07T06:32:35.251Z,3.1
2023-05-07T06:33:36.311Z,3.0
2023-05-07T06:34:35.112Z,3.3
2023-05-07T06:35:35.184Z,3.4
2023-05-07T06:36:35.157Z,2.7
2023-05-07T06:37:35.107Z,3.4
2023-05-07T06:38:35.107Z,2.5
2023-05-07T06:39:35.235Z,2.3
2023-05-07T06:40:35.134Z,3.3
2023-05-07T06:41:35.166Z,2.7
2023-05-07T06:42:35.091Z,3.8
2023-05-07T06:43:35.146Z,2.4
2023-05-07T06:44:35.207Z,3.1
2023-05-07T06:45:35.094Z,3.1
2023-05-07T06:46:35.130Z,3.0
2023-05-07T06:47:35.186Z,2.7
2023-05-07T06:48:35.177Z,2.4
2023-05-07T06:49:40.766Z,2.1
2023-05-07T06:50:35.279Z,4.0
2023-05-07T06:51:35.066Z,3.4
2023-05-07T06:52:35.035Z,1.9
2023-05-07T06:53:35.397Z,2.9
2023-05-07T06:54:35.086Z,2.2
2023-05-07T06:55:35.090Z,2.3
2023-05-07T06:56:35.046Z,2.0
2023-05-07T06:57:35.033Z,2.5
2023-05-07T06:58:35.108Z,1.4
2023-05-07T06:59:35.120Z,2.9
2023-05-07T07:00:35.047Z,3.7
2023-05-07T07:01:35.311Z,4.5
2023-05-07T07:02:35.253Z,2.9
2023-05-07T07:03:35.121Z,2.0
2023-05-07T07:04:35.046Z,3.2
2023-05-07T07:05:35.164Z,3.0
2023-05-07T07:06:35.029Z,2.7
2023-05-07T07:07:35.082Z,2.9
2023-05-07T07:08:35.104Z,2.4
2023-05-07T07:09:35.039Z,4.1
2023-05-07T07:10:35.018Z,2.7
2023-05-07T07:11:35.067Z,2.5
2023-05-07T07:12:36.530Z,2.0
2023-05-07T07:14:35.183Z,2.2
2023-05-07T07:15:35.087Z,3.9
2023-05-07T07:16:35.116Z,3.3
2023-05-07T07:17:35.066Z,2.5
2023-05-07T07:18:35.034Z,2.6
2023-05-07T07:19:35.073Z,3.2
2023-05-07T07:20:35.088Z,3.7
2023-05-07T07:21:35.012Z,3.0
2023-05-07T07:22:35.034Z,3.8
2023-05-07T07:23:35.162Z,3.7
2023-05-07T07:24:35.036Z,4.6
2023-05-07T07:25:35.095Z,3.2
2023-05-07T07:26:35.012Z,4.6
2023-05-07T07:27:35.015Z,3.3
2023-05-07T07:28:35.132Z,4.1
2023-05-07T07:29:35.018Z,3.3
2023-05-07T07:30:34.991Z,2.8
2023-05-07T07:31:35.065Z,3.5
2023-05-07T07:32:35.101Z,2.9
2023-05-07T07:33:35.079Z,4.2
2023-05-07T07:34:35.015Z,4.0
2023-05-07T07:35:35.076Z,3.1
2023-05-07T07:36:45.101Z,6.3
2023-05-07T07:37:35.041Z,3.8
2023-05-07T07:38:35.173Z,4.3
2023-05-07T07:39:35.090Z,3.9
2023-05-07T07:40:34.964Z,4.2
2023-05-07T07:41:34.976Z,2.6
2023-05-07T07:42:35.015Z,3.8
2023-05-07T07:43:34.967Z,4.5
2023-05-07T07:44:35.333Z,3.8
2023-05-07T07:46:01.717Z,4.7
2023-05-07T07:46:35.015Z,3.3
2023-05-07T07:47:35.150Z,3.1
2023-05-07T07:48:34.991Z,4.1
2023-05-07T07:49:35.085Z,5.2
2023-05-07T07:50:44.301Z,4.0
2023-05-07T07:51:34.963Z,4.4
2023-05-07T07:52:35.006Z,5.0
2023-05-07T07:53:34.997Z,6.2
2023-05-07T07:54:34.978Z,4.9
2023-05-07T07:55:34.973Z,4.3
2023-05-07T07:56:34.971Z,3.9
2023-05-07T07:58:01.111Z,3.8
2023-05-07T07:58:34.961Z,5.2
2023-05-07T07:59:35.025Z,3.9
2023-05-07T08:00:34.971Z,4.1
2023-05-07T08:01:34.971Z,4.5
2023-05-07T08:02:35.030Z,4.0
2023-05-07T08:03:35.977Z,4.0
2023-05-07T08:04:34.969Z,3.6
2023-05-07T08:05:35.009Z,3.8
2023-05-07T08:06:35.189Z,3.8
2023-05-07T08:07:34.904Z,4.8
2023-05-07T08:08:34.979Z,4.7
2023-05-07T08:09:34.945Z,3.2
2023-05-07T08:10:35.300Z,4.6
2023-05-07T08:11:34.967Z,4.4
2023-05-07T08:12:35.054Z,4.3
2023-05-07T08:13:34.994Z,6.5
2023-05-07T08:14:35.023Z,5.3
2023-05-07T08:15:34.939Z,5.4
2023-05-07T08:16:34.974Z,4.6
2023-05-07T08:17:35.211Z,4.7
2023-05-07T08:18:36.048Z,3.8
2023-05-07T08:19:34.915Z,4.1
2023-05-07T08:20:34.969Z,4.9
2023-05-07T08:21:34.991Z,4.3
2023-05-07T08:22:35.006Z,4.0
2023-05-07T08:23:34.931Z,4.6
2023-05-07T08:24:34.994Z,3.8
2023-05-07T08:25:38.374Z,4.7
2023-05-07T08:26:34.966Z,4.8
2023-05-07T08:27:34.872Z,3.5
2023-05-07T08:28:34.931Z,4.6
2023-05-07T08:29:35.078Z,4.3
2023-05-07T08:30:34.945Z,6.3
2023-05-07T08:31:34.919Z,4.6
2023-05-07T08:32:35.106Z,3.5
2023-05-07T08:33:34.946Z,4.5
2023-05-07T08:34:34.915Z,4.8
2023-05-07T08:35:35.006Z,5.7
2023-05-07T08:36:34.892Z,4.2
2023-05-07T08:37:34.978Z,4.2
2023-05-07T08:38:34.972Z,4.4
2023-05-07T08:39:34.900Z,5.1
2023-05-07T08:40:34.956Z,4.6
2023-05-07T08:41:34.929Z,4.6
2023-05-07T08:42:34.912Z,4.2
2023-05-07T08:43:34.948Z,3.9
2023-05-07T08:44:34.977Z,3.8
2023-05-07T08:45:34.877Z,5.0
2023-05-07T08:46:34.976Z,4.1
2023-05-07T08:47:34.916Z,3.9
2023-05-07T08:48:34.893Z,5.1
2023-05-07T08:49:34.899Z,4.2
2023-05-07T08:50:35.020Z,3.9
2023-05-07T08:51:35.032Z,4.3
2023-05-07T08:52:34.827Z,4.9
2023-05-07T08:53:34.979Z,4.2
2023-05-07T08:54:34.919Z,4.4
2023-05-07T08:55:34.940Z,13.4
2023-05-07T08:56:34.854Z,4.5
2023-05-07T08:57:34.848Z,4.9
2023-05-07T08:58:34.874Z,4.4
2023-05-07T08:59:34.885Z,4.3
2023-05-07T09:00:34.855Z,4.3
2023-05-07T09:01:34.904Z,5.1
2023-05-07T09:02:35.080Z,4.6
2023-05-07T09:03:34.870Z,4.9
2023-05-07T09:04:34.873Z,3.8
2023-05-07T09:05:34.850Z,4.8
2023-05-07T09:06:34.880Z,4.8
2023-05-07T09:07:34.936Z,3.4
2023-05-07T09:08:35.324Z,4.1
2023-05-07T09:09:35.043Z,4.7
2023-05-07T09:10:34.797Z,3.9
2023-05-07T09:11:34.945Z,4.1
2023-05-07T09:12:34.980Z,5.0
2023-05-07T09:13:35.013Z,4.6
2023-05-07T09:14:34.819Z,4.2
2023-05-07T09:15:34.885Z,4.5
2023-05-07T09:16:34.839Z,3.3
2023-05-07T09:17:35.005Z,5.5
2023-05-07T09:18:34.873Z,4.8
2023-05-07T09:19:34.850Z,4.2
2023-05-07T09:20:34.970Z,4.1
2023-05-07T09:21:34.833Z,5.1
2023-05-07T09:22:34.811Z,3.6
2023-05-07T09:23:34.849Z,6.2
2023-05-07T09:24:34.962Z,4.6
2023-05-07T09:25:34.832Z,4.4
2023-05-07T09:26:35.033Z,5.2
2023-05-07T09:27:34.794Z,4.6
2023-05-07T09:28:34.851Z,3.8
2023-05-07T09:29:34.824Z,4.9
2023-05-07T09:30:34.824Z,4.0
2023-05-07T09:31:34.896Z,4.2
2023-05-07T09:32:35.114Z,4.8
2023-05-07T09:33:34.762Z,4.7
2023-05-07T09:34:34.777Z,5.9
2023-05-07T09:35:34.959Z,4.2
2023-05-07T09:36:34.867Z,3.6
2023-05-07T09:37:34.908Z,4.2
2023-05-07T09:38:34.832Z,4.0
2023-05-07T09:39:34.805Z,5.0
2023-05-07T09:40:34.808Z,5.0
2023-05-07T09:41:34.842Z,5.7
2023-05-07T09:42:34.790Z,4.1
2023-05-07T09:43:34.840Z,4.5
2023-05-07T09:44:34.772Z,5.6
2023-05-07T09:45:34.925Z,4.7
2023-05-07T09:46:34.944Z,5.5
2023-05-07T09:47:34.870Z,4.4
2023-05-07T09:48:34.737Z,5.3
2023-05-07T09:49:34.846Z,5.0
2023-05-07T09:50:34.903Z,4.8
2023-05-07T09:51:34.733Z,4.4
2023-05-07T09:52:34.821Z,4.3
2023-05-07T09:53:34.787Z,5.2
2023-05-07T09:54:34.734Z,4.2
2023-05-07T09:55:34.832Z,5.1
2023-05-07T09:56:34.904Z,5.4
2023-05-07T09:57:34.919Z,3.8
2023-05-07T09:58:34.746Z,4.2
2023-05-07T09:59:34.756Z,4.3
2023-05-07T10:00:34.805Z,4.8
2023-05-07T10:01:34.793Z,4.1
2023-05-07T10:02:34.822Z,4.0
2023-05-07T10:03:34.832Z,4.5
2023-05-07T10:04:34.730Z,5.2
2023-05-07T10:05:34.825Z,4.2
2023-05-07T10:06:34.736Z,4.4
2023-05-07T10:07:34.731Z,4.8
2023-05-07T10:08:35.049Z,6.0
2023-05-07T10:09:34.768Z,4.4
2023-05-07T10:10:34.742Z,4.1
2023-05-07T10:11:34.734Z,4.2
2023-05-07T10:12:34.702Z,4.5
2023-05-07T10:13:34.723Z,4.1
2023-05-07T10:14:34.736Z,4.7
2023-05-07T10:15:34.735Z,4.5
2023-05-07T10:16:34.767Z,4.2
2023-05-07T10:17:34.869Z,4.2
2023-05-07T10:18:34.780Z,4.3
2023-05-07T10:19:34.877Z,4.2
2023-05-07T10:20:34.786Z,5.3
2023-05-07T10:21:34.749Z,3.8
2023-05-07T10:22:34.742Z,4.2
2023-05-07T10:23:34.817Z,3.9
2023-05-07T10:24:34.664Z,4.1
2023-05-07T10:25:34.692Z,4.2
2023-05-07T10:26:34.868Z,3.7
2023-05-07T10:27:34.708Z,4.2
2023-05-07T10:28:34.727Z,4.8
2023-05-07T10:29:34.785Z,3.9
2023-05-07T10:30:36.787Z,3.8
2023-05-07T10:31:34.771Z,3.9
2023-05-07T10:32:34.751Z,4.3
2023-05-07T10:33:34.691Z,4.8
2023-05-07T10:34:34.716Z,3.9
2023-05-07T10:35:34.742Z,5.0
2023-05-07T10:36:36.958Z,4.1
2023-05-07T10:37:34.674Z,3.4
2023-05-07T10:38:34.740Z,3.7
2023-05-07T10:39:34.661Z,4.0
2023-05-07T10:40:34.708Z,4.1
2023-05-07T10:41:34.906Z,4.3
2023-05-07T10:42:34.679Z,4.2
2023-05-07T10:43:34.656Z,4.6
2023-05-07T10:44:34.696Z,4.9
2023-05-07T10:45:34.698Z,3.6
2023-05-07T10:46:34.752Z,4.0
2023-05-07T10:47:34.714Z,4.6
2023-05-07T10:48:34.717Z,4.8
2023-05-07T10:49:34.648Z,6.8
2023-05-07T10:50:34.715Z,4.2
2023-05-07T10:51:34.678Z,3.5
2023-05-07T10:52:34.879Z,4.1
2023-05-07T10:53:34.723Z,4.4
2023-05-07T10:54:37.396Z,5.0
2023-05-07T10:55:34.685Z,4.0
2023-05-07T10:56:34.681Z,3.6
2023-05-07T10:57:34.639Z,8.7
2023-05-07T10:58:34.763Z,4.2
2023-05-07T10:59:34.896Z,4.1
2023-05-07T11:00:38.927Z,4.9
2023-05-07T11:01:34.692Z,4.1
2023-05-07T11:02:34.736Z,5.7
2023-05-07T11:03:34.783Z,5.8
2023-05-07T11:04:34.660Z,4.5
2023-05-07T11:05:37.337Z,4.2
2023-05-07T11:06:34.748Z,4.9
2023-05-07T11:07:34.658Z,5.6
2023-05-07T11:08:34.799Z,5.9
2023-05-07T11:09:34.647Z,5.4
2023-05-07T11:10:34.648Z,3.9
2023-05-07T11:11:36.152Z,4.8
2023-05-07T11:12:34.676Z,3.8
2023-05-07T11:13:34.652Z,4.2
2023-05-07T11:14:34.839Z,4.5
2023-05-07T11:15:34.615Z,4.2
2023-05-07T11:16:34.667Z,4.3
2023-05-07T11:17:36.994Z,4.4
2023-05-07T11:18:34.645Z,4.6
2023-05-07T11:19:34.615Z,4.8
2023-05-07T11:20:34.681Z,4.6
2023-05-07T11:21:34.744Z,4.1
2023-05-07T11:22:34.642Z,4.9
2023-05-07T11:23:34.640Z,4.2
2023-05-07T11:24:34.627Z,4.1
2023-05-07T11:25:34.700Z,3.6
2023-05-07T11:26:34.692Z,3.8
2023-05-07T11:27:34.659Z,3.1
2023-05-07T11:28:34.585Z,4.0
2023-05-07T11:29:34.751Z,5.6
2023-05-07T11:30:34.608Z,4.9
2023-05-07T11:31:34.693Z,5.7
2023-05-07T11:32:34.649Z,3.8
2023-05-07T11:33:34.578Z,4.9
2023-05-07T11:34:34.620Z,4.0
2023-05-07T11:35:36.989Z,4.6
2023-05-07T11:36:34.632Z,5.2
2023-05-07T11:37:34.587Z,4.9
2023-05-07T11:38:34.725Z,3.9
2023-05-07T11:39:34.594Z,4.6
2023-05-07T11:40:34.601Z,4.7
2023-05-07T11:41:34.624Z,4.2
2023-05-07T11:42:34.557Z,4.7
2023-05-07T11:43:34.591Z,4.2
2023-05-07T11:44:34.641Z,4.1
2023-05-07T11:45:34.584Z,4.6
2023-05-07T11:46:34.580Z,4.0
2023-05-07T11:47:34.897Z,3.8
2023-05-07T11:48:34.581Z,4.5
2023-05-07T11:49:34.602Z,3.8
2023-05-07T11:50:34.601Z,3.6
2023-05-07T11:51:34.650Z,4.3
2023-05-07T11:52:34.615Z,4.0
2023-05-07T11:53:34.583Z,4.9
2023-05-07T11:54:34.574Z,3.7
2023-05-07T11:55:34.538Z,4.0
2023-05-07T11:56:34.573Z,3.5
2023-05-07T11:57:34.786Z,3.5
2023-05-07T11:59:34.755Z,4.9
2023-05-07T12:00:34.575Z,4.0
2023-05-07T12:01:34.842Z,4.4
2023-05-07T12:02:34.898Z,3.7
2023-05-07T12:03:36.327Z,3.3
2023-05-07T12:04:34.719Z,4.4
2023-05-07T12:05:35.021Z,5.2
2023-05-07T12:06:34.538Z,5.6
2023-05-07T12:07:34.538Z,7.5
2023-05-07T12:08:34.589Z,10.2
2023-05-07T12:09:34.539Z,11.5
2023-05-07T12:10:34.527Z,9.8
2023-05-07T12:11:34.661Z,7.5
2023-05-07T12:12:34.607Z,5.3
2023-05-07T12:13:34.521Z,5.4
2023-05-07T12:14:34.620Z,4.7
2023-05-07T12:15:34.629Z,5.4
2023-05-07T12:16:34.570Z,4.8
2023-05-07T12:17:34.651Z,4.5
2023-05-07T12:18:34.527Z,4.6
2023-05-07T12:19:34.469Z,6.4
2023-05-07T12:20:34.754Z,5.8
2023-05-07T12:21:34.560Z,5.9
2023-05-07T12:22:34.518Z,5.2
2023-05-07T12:23:34.662Z,4.1
2023-05-07T12:24:34.523Z,4.8
2023-05-07T12:25:34.548Z,6.4
2023-05-07T12:26:34.633Z,6.0
2023-05-07T12:27:34.494Z,7.1
2023-05-07T12:28:34.526Z,8.5
2023-05-07T12:29:34.485Z,3.9
2023-05-07T12:30:34.519Z,4.8
2023-05-07T12:31:34.841Z,6.5
2023-05-07T12:32:34.636Z,4.4
2023-05-07T12:33:34.467Z,6.8
2023-05-07T12:34:34.481Z,5.4
2023-05-07T12:35:34.544Z,8.3
2023-05-07T12:36:34.558Z,4.9
2023-05-07T12:37:34.455Z,4.4
2023-05-07T12:38:34.573Z,5.4
2023-05-07T12:39:34.471Z,4.3
2023-05-07T12:40:34.528Z,3.6
2023-05-07T12:41:34.548Z,4.0
2023-05-07T12:42:34.477Z,4.4
2023-05-07T12:43:34.492Z,5.3
2023-05-07T12:44:34.587Z,4.2
2023-05-07T12:45:34.463Z,4.7
2023-05-07T12:46:34.558Z,4.1
2023-05-07T12:47:34.676Z,4.1
2023-05-07T12:48:34.502Z,5.1
2023-05-07T12:49:34.424Z,4.6
2023-05-07T12:50:34.492Z,4.5
2023-05-07T12:51:34.446Z,4.5
2023-05-07T12:52:34.464Z,3.6
2023-05-07T12:53:34.762Z,5.4
2023-05-07T12:54:34.497Z,4.1
2023-05-07T12:55:35.193Z,3.7
2023-05-07T12:56:34.435Z,4.5
2023-05-07T12:57:34.504Z,5.6
2023-05-07T12:58:34.467Z,3.7
2023-05-07T12:59:34.520Z,4.1
2023-05-07T13:00:34.432Z,4.1
2023-05-07T13:01:34.465Z,4.0
2023-05-07T13:02:34.859Z,4.8
2023-05-07T13:03:34.708Z,4.8
2023-05-07T13:04:35.146Z,5.6
2023-05-07T13:05:34.522Z,4.7
2023-05-07T13:06:34.451Z,4.2
2023-05-07T13:07:34.423Z,4.1
2023-05-07T13:08:34.474Z,4.3
2023-05-07T13:09:34.409Z,5.8
2023-05-07T13:10:34.442Z,4.2
2023-05-07T13:11:34.485Z,7.4
2023-05-07T13:12:34.398Z,3.6
2023-05-07T13:13:34.446Z,5.8
2023-05-07T13:14:34.447Z,4.9
2023-05-07T13:15:34.408Z,5.8
2023-05-07T13:16:34.582Z,4.5
2023-05-07T13:17:34.640Z,4.2
2023-05-07T13:18:34.622Z,6.1
2023-05-07T13:24:34.440Z,4.9
2023-05-07T13:25:34.733Z,8.5
2023-05-07T13:26:34.597Z,5.0
2023-05-07T13:27:34.485Z,4.6
2023-05-07T13:28:34.388Z,4.5
2023-05-07T13:29:34.432Z,4.3
2023-05-07T13:30:34.388Z,4.3
2023-05-07T13:31:34.399Z,5.5
2023-05-07T13:32:34.407Z,4.3
2023-05-07T13:33:34.400Z,4.1
2023-05-07T13:34:34.388Z,3.6
2023-05-07T13:35:34.455Z,6.0
2023-05-07T13:36:34.395Z,4.4
2023-05-07T13:37:35.037Z,6.7
2023-05-07T13:38:34.464Z,4.3
2023-05-07T13:39:34.364Z,5.5
2023-05-07T13:40:34.373Z,5.0
2023-05-07T13:41:34.392Z,3.8
2023-05-07T13:42:34.373Z,4.8
2023-05-07T13:43:34.394Z,3.9
2023-05-07T13:44:34.756Z,14.8
2023-05-07T13:45:34.730Z,4.6
2023-05-07T13:46:34.638Z,4.1
2023-05-07T13:47:34.415Z,4.4
2023-05-07T13:48:34.348Z,4.0
2023-05-07T13:49:34.408Z,5.5
2023-05-07T13:50:34.465Z,5.2
2023-05-07T13:51:34.328Z,5.0
2023-05-07T13:52:34.340Z,5.5
2023-05-07T13:53:38.954Z,5.1
2023-05-07T13:54:34.316Z,6.4
2023-05-07T13:55:34.346Z,5.9